Time;durP1;ratioP1;P1;durP2;ratioP2;P2;SDS_P1;SDS_P2;PMS_P1;PMS_P2;Temp;Humidity;BMP_temperature;BMP_pressure;BME280_temperature;BME280_humidity;BME280_pressure;Samples;Min_cycle;Max_cycle;Signal;HPM_P1;HPM_P2
2021/10/12 00:01:12;;;;;;;4.13;1.90;;;21.60;52.70;;;;;;4992124;28;20042;-53
2021/10/12 00:03:38;;;;;;;3.13;1.90;;;21.60;52.80;;;;;;4983466;28;20062;-58
2021/10/12 00:06:03;;;;;;;2.75;1.98;;;21.60;52.80;;;;;;4985040;28;20026;-58
2021/10/12 00:08:29;;;;;;;3.05;1.98;;;21.60;52.80;;;;;;5001928;28;20552;-58
2021/10/12 00:10:55;;;;;;;2.83;1.73;;;21.60;52.80;;;;;;5000193;28;20026;-57
2021/10/12 00:13:20;;;;;;;2.92;1.80;;;21.60;52.80;;;;;;4999183;28;20022;-59
2021/10/12 00:15:46;;;;;;;2.80;1.85;;;21.60;52.80;;;;;;4985573;28;20035;-58
2021/10/12 00:18:12;;;;;;;2.28;1.50;;;21.60;52.80;;;;;;4988506;28;20057;-59
2021/10/12 00:20:37;;;;;;;2.92;1.90;;;21.60;52.90;;;;;;4988417;28;20026;-55
2021/10/12 00:23:06;;;;;;;2.90;1.80;;;21.60;52.80;;;;;;4991010;28;20037;-58
2021/10/12 00:25:32;;;;;;;2.15;1.63;;;21.60;52.80;;;;;;4984166;28;20053;-58
2021/10/12 00:27:58;;;;;;;2.92;1.80;;;21.60;52.80;;;;;;4990731;28;20058;-58
2021/10/12 00:30:23;;;;;;;2.60;1.60;;;21.50;52.80;;;;;;4998858;28;20045;-59
2021/10/12 00:32:49;;;;;;;3.22;1.67;;;21.50;52.80;;;;;;4987693;28;20362;-54
2021/10/12 00:35:14;;;;;;;2.65;1.88;;;21.50;52.80;;;;;;4987435;28;20026;-57
2021/10/12 00:37:41;;;;;;;3.45;2.10;;;21.50;52.80;;;;;;4994383;28;20160;-56
2021/10/12 00:40:07;;;;;;;3.05;2.00;;;21.50;52.80;;;;;;4992763;28;20083;-50
2021/10/12 00:42:34;;;;;;;2.80;1.70;;;21.50;52.80;;;;;;4995410;28;20168;-56
2021/10/12 00:45:02;;;;;;;2.70;1.80;;;21.50;52.80;;;;;;4997382;28;20646;-57
2021/10/12 00:47:28;;;;;;;2.95;1.83;;;21.50;52.90;;;;;;4981271;28;20035;-58
2021/10/12 00:49:53;;;;;;;2.35;1.65;;;21.50;52.90;;;;;;4992896;28;20061;-54
2021/10/12 00:52:19;;;;;;;2.97;1.83;;;21.50;52.90;;;;;;4991504;28;20174;-57
2021/10/12 00:54:45;;;;;;;2.83;1.70;;;21.50;52.90;;;;;;4984487;28;20035;-54
2021/10/12 00:57:11;;;;;;;2.80;2.10;;;21.40;52.80;;;;;;4986720;28;20045;-59
2021/10/12 00:59:38;;;;;;;2.70;1.77;;;21.50;52.90;;;;;;4989230;28;20034;-57
2021/10/12 01:02:04;;;;;;;2.75;1.90;;;21.40;52.90;;;;;;4989127;28;20035;-58
2021/10/12 01:04:29;;;;;;;2.60;1.90;;;21.40;52.90;;;;;;4992174;28;20040;-58
2021/10/12 01:06:55;;;;;;;3.08;1.60;;;21.40;52.90;;;;;;4989642;28;20461;-56
2021/10/12 01:09:20;;;;;;;3.33;1.77;;;21.40;52.90;;;;;;4988026;28;20484;-58
2021/10/12 01:11:47;;;;;;;2.30;1.67;;;21.40;52.90;;;;;;4990262;28;20030;-57
2021/10/12 01:14:13;;;;;;;3.58;2.05;;;21.40;52.90;;;;;;4987545;28;20514;-57
2021/10/12 01:16:38;;;;;;;3.20;1.67;;;21.40;52.90;;;;;;4983410;28;20087;-56
2021/10/12 01:19:06;;;;;;;2.55;1.70;;;21.40;53.00;;;;;;4982935;28;20037;-59
2021/10/12 01:21:58;;;;;;;2.70;1.80;;;21.40;52.90;;;;;;4980222;28;20042;-57
2021/10/12 01:24:23;;;;;;;2.22;1.60;;;21.40;52.90;;;;;;4986959;28;20091;-52
2021/10/12 01:26:49;;;;;;;2.42;1.77;;;21.40;52.90;;;;;;4993276;28;20026;-51
2021/10/12 01:29:15;;;;;;;2.35;1.50;;;21.30;52.90;;;;;;4994318;28;20524;-57
2021/10/12 01:31:41;;;;;;;2.72;1.80;;;21.40;53.00;;;;;;4996636;28;20092;-56
2021/10/12 01:34:12;;;;;;;2.60;1.70;;;21.30;52.90;;;;;;4987818;28;20038;-53
2021/10/12 01:36:37;;;;;;;2.80;1.77;;;21.30;52.90;;;;;;4984067;28;20077;-55
2021/10/12 01:39:03;;;;;;;2.20;1.63;;;21.30;53.00;;;;;;4982347;28;20027;-56
2021/10/12 01:41:29;;;;;;;2.03;1.50;;;21.30;52.90;;;;;;4987076;28;20107;-59
2021/10/12 01:43:56;;;;;;;2.10;1.60;;;21.30;53.00;;;;;;4982295;28;20058;-58
2021/10/12 01:46:22;;;;;;;2.33;1.60;;;21.30;53.00;;;;;;4975409;28;20150;-57
2021/10/12 01:48:47;;;;;;;2.40;1.67;;;21.30;53.00;;;;;;4987818;28;20022;-53
2021/10/12 01:51:13;;;;;;;1.70;1.30;;;21.20;53.00;;;;;;4984576;28;20042;-56
2021/10/12 01:53:39;;;;;;;3.17;1.48;;;21.30;53.00;;;;;;4985887;28;20421;-57
2021/10/12 01:56:05;;;;;;;2.33;1.60;;;21.30;53.10;;;;;;4990028;28;20026;-59
2021/10/12 01:58:31;;;;;;;2.25;1.60;;;21.20;53.00;;;;;;4997759;28;20105;-58
2021/10/12 02:00:57;;;;;;;2.00;1.35;;;21.20;53.00;;;;;;4986470;28;20117;-55
2021/10/12 02:03:23;;;;;;;2.55;1.67;;;21.20;53.00;;;;;;4988464;28;20062;-57
2021/10/12 02:05:48;;;;;;;2.20;1.52;;;21.20;53.10;;;;;;4987045;28;20495;-56
2021/10/12 02:08:14;;;;;;;2.05;1.52;;;21.20;53.10;;;;;;4993246;28;20462;-58
2021/10/12 02:10:40;;;;;;;2.08;1.50;;;21.20;53.10;;;;;;4979838;28;20034;-57
2021/10/12 02:13:06;;;;;;;2.08;1.58;;;21.20;53.10;;;;;;4984497;28;20099;-54
2021/10/12 02:15:32;;;;;;;2.60;1.70;;;21.20;53.10;;;;;;4986145;28;20061;-55
2021/10/12 02:17:57;;;;;;;2.58;1.70;;;21.20;53.10;;;;;;4997041;28;20324;-56
2021/10/12 02:20:23;;;;;;;2.33;1.60;;;21.20;53.10;;;;;;4993148;28;20033;-56
2021/10/12 02:22:49;;;;;;;4.43;2.05;;;21.10;53.10;;;;;;4986658;28;20041;-59
2021/10/12 02:25:14;;;;;;;2.03;1.40;;;21.10;53.20;;;;;;4985307;28;20034;-54
2021/10/12 02:27:40;;;;;;;2.75;1.73;;;21.10;53.20;;;;;;4983964;28;20030;-58
2021/10/12 02:30:07;;;;;;;2.33;1.70;;;21.10;53.20;;;;;;4982171;28;20049;-56
2021/10/12 02:32:33;;;;;;;2.30;1.60;;;21.10;53.20;;;;;;4983681;28;20025;-59
2021/10/12 02:34:59;;;;;;;2.55;1.50;;;21.10;53.10;;;;;;4993187;28;20029;-58
2021/10/12 02:37:24;;;;;;;1.92;1.30;;;21.10;53.20;;;;;;4983813;28;20098;-57
2021/10/12 02:39:50;;;;;;;2.40;1.60;;;21.10;53.20;;;;;;4997040;28;20030;-58
2021/10/12 02:42:15;;;;;;;2.20;1.40;;;21.10;53.20;;;;;;4992023;28;20030;-59
2021/10/12 02:44:41;;;;;;;2.17;1.55;;;21.10;53.20;;;;;;4995745;28;20063;-58
2021/10/12 02:47:07;;;;;;;1.80;1.30;;;21.10;53.20;;;;;;4987668;28;20038;-58
2021/10/12 02:49:32;;;;;;;1.67;1.20;;;21.10;53.20;;;;;;4996467;28;20037;-58
2021/10/12 02:51:58;;;;;;;2.38;1.60;;;21.00;53.20;;;;;;4989344;28;20022;-56
2021/10/12 02:54:24;;;;;;;2.55;1.63;;;21.00;53.20;;;;;;4991577;28;20109;-57
2021/10/12 02:56:49;;;;;;;2.28;1.50;;;21.00;53.20;;;;;;4988792;28;20030;-59
2021/10/12 02:59:15;;;;;;;2.13;1.50;;;21.00;53.30;;;;;;4987806;28;20351;-59
2021/10/12 03:01:41;;;;;;;2.10;1.50;;;21.00;53.30;;;;;;4987045;28;20042;-52
2021/10/12 03:04:06;;;;;;;3.00;1.63;;;21.00;53.30;;;;;;4996943;28;20528;-58
2021/10/12 03:06:32;;;;;;;2.22;1.30;;;21.00;53.30;;;;;;4989970;28;20035;-55
2021/10/12 03:08:58;;;;;;;2.00;1.50;;;21.00;53.30;;;;;;4980118;28;20045;-53
2021/10/12 03:11:23;;;;;;;2.63;1.60;;;21.00;53.30;;;;;;4986125;28;20026;-53
2021/10/12 03:13:49;;;;;;;2.33;1.42;;;21.00;53.30;;;;;;4989297;28;20062;-54
2021/10/12 03:16:15;;;;;;;2.05;1.40;;;21.00;53.30;;;;;;4990917;28;20041;-54
2021/10/12 03:18:40;;;;;;;2.22;1.58;;;21.00;53.30;;;;;;4992117;28;20044;-56
2021/10/12 03:21:06;;;;;;;2.08;1.38;;;21.00;53.30;;;;;;5000055;28;20026;-58
2021/10/12 03:23:32;;;;;;;1.92;1.33;;;20.90;53.30;;;;;;5001789;28;20531;-58
2021/10/12 03:25:58;;;;;;;2.50;1.65;;;21.00;53.40;;;;;;4996309;28;20041;-59
2021/10/12 03:28:24;;;;;;;2.00;1.40;;;20.90;53.30;;;;;;4990075;28;20035;-58
2021/10/12 03:30:50;;;;;;;2.42;1.52;;;20.90;53.30;;;;;;4984857;28;20471;-56
2021/10/12 03:33:16;;;;;;;1.98;1.38;;;20.90;53.30;;;;;;4993241;28;20092;-53
2021/10/12 03:35:47;;;;;;;2.03;1.50;;;20.90;53.30;;;;;;4985862;28;20070;-58
2021/10/12 03:38:13;;;;;;;2.15;1.42;;;20.90;53.30;;;;;;4984977;28;20089;-55
2021/10/12 03:40:38;;;;;;;2.35;1.52;;;20.90;53.30;;;;;;4985551;28;20034;-50
2021/10/12 03:43:04;;;;;;;2.35;1.45;;;20.90;53.30;;;;;;4989407;28;20747;-56
2021/10/12 03:45:30;;;;;;;1.80;1.38;;;20.90;53.40;;;;;;4997702;28;20768;-54
2021/10/12 03:47:55;;;;;;;1.88;1.30;;;20.90;53.40;;;;;;5001871;28;20041;-57
2021/10/12 03:50:21;;;;;;;2.22;1.50;;;20.90;53.30;;;;;;4989730;28;20031;-55
2021/10/12 03:52:47;;;;;;;2.22;1.40;;;20.90;53.40;;;;;;4993721;28;20494;-57
2021/10/12 03:55:13;;;;;;;2.70;1.70;;;20.90;53.40;;;;;;4993764;28;20069;-58
2021/10/12 03:57:38;;;;;;;1.88;1.42;;;20.90;53.40;;;;;;5006143;28;20073;-59
2021/10/12 04:00:05;;;;;;;1.85;1.30;;;20.90;53.40;;;;;;4989693;28;20113;-55
2021/10/12 04:02:31;;;;;;;2.15;1.50;;;20.90;53.40;;;;;;4990216;28;20117;-53
2021/10/12 04:04:57;;;;;;;2.13;1.35;;;20.80;53.40;;;;;;4989683;28;20134;-52
2021/10/12 04:07:23;;;;;;;1.80;1.30;;;20.90;53.50;;;;;;4989195;28;20136;-54
2021/10/12 04:09:49;;;;;;;1.90;1.40;;;20.80;53.40;;;;;;4991351;28;20030;-57
2021/10/12 04:12:14;;;;;;;2.10;1.27;;;20.90;53.50;;;;;;4992878;28;20040;-56
2021/10/12 04:14:40;;;;;;;1.50;1.20;;;20.80;53.40;;;;;;4987985;28;20027;-56
2021/10/12 04:17:05;;;;;;;1.90;1.42;;;20.80;53.40;;;;;;4988094;28;20061;-57
2021/10/12 04:19:31;;;;;;;3.22;1.50;;;20.80;53.50;;;;;;4988502;28;20126;-56
2021/10/12 04:21:56;;;;;;;2.35;1.30;;;20.80;53.50;;;;;;4988784;28;20045;-54
2021/10/12 04:24:22;;;;;;;2.42;1.45;;;20.80;53.50;;;;;;4995931;28;20066;-52
2021/10/12 04:26:48;;;;;;;2.30;1.40;;;20.80;53.50;;;;;;4997393;28;20053;-57
2021/10/12 04:29:14;;;;;;;2.15;1.52;;;20.80;53.50;;;;;;4984261;28;20383;-58
2021/10/12 04:31:39;;;;;;;2.30;1.58;;;20.80;53.50;;;;;;4981459;28;20073;-55
2021/10/12 04:34:05;;;;;;;2.13;1.50;;;20.80;53.50;;;;;;4990191;28;20030;-59
2021/10/12 04:36:30;;;;;;;2.15;1.38;;;20.80;53.50;;;;;;4997679;28;20120;-50
2021/10/12 04:38:56;;;;;;;1.83;1.30;;;20.80;53.50;;;;;;4994123;28;20280;-53
2021/10/12 04:41:21;;;;;;;2.65;1.40;;;20.80;53.50;;;;;;4990246;28;20034;-57
2021/10/12 04:43:47;;;;;;;2.13;1.42;;;20.80;53.50;;;;;;4987048;28;20035;-54
2021/10/12 04:46:14;;;;;;;1.75;1.30;;;20.80;53.50;;;;;;4996345;28;20052;-58
2021/10/12 04:48:40;;;;;;;2.00;1.38;;;20.80;53.60;;;;;;4978594;28;20165;-56
2021/10/12 04:51:06;;;;;;;1.90;1.40;;;20.70;53.50;;;;;;4987991;28;20097;-57
2021/10/12 04:53:31;;;;;;;2.40;1.40;;;20.80;53.60;;;;;;4984775;28;20120;-58
2021/10/12 04:55:57;;;;;;;1.60;1.30;;;20.70;53.60;;;;;;4992218;28;20030;-58
2021/10/12 04:58:23;;;;;;;2.03;1.27;;;20.70;53.60;;;;;;4980571;28;20023;-57
2021/10/12 05:00:48;;;;;;;1.83;1.20;;;20.70;53.60;;;;;;4986693;28;20038;-57
2021/10/12 05:03:14;;;;;;;2.35;1.45;;;20.70;53.60;;;;;;4985657;28;20109;-59
2021/10/12 05:05:40;;;;;;;2.13;1.40;;;20.70;53.70;;;;;;4995186;28;20034;-56
2021/10/12 05:08:05;;;;;;;1.75;1.23;;;20.70;53.70;;;;;;4984812;28;20098;-55
2021/10/12 05:10:31;;;;;;;2.10;1.30;;;20.70;53.60;;;;;;4986546;28;20642;-58
2021/10/12 05:12:56;;;;;;;2.10;1.40;;;20.70;53.70;;;;;;4986384;28;20033;-56
2021/10/12 05:15:25;;;;;;;1.58;1.10;;;20.70;53.70;;;;;;4998547;28;20069;-58
2021/10/12 05:17:51;;;;;;;1.90;1.40;;;20.70;53.70;;;;;;5000916;28;20033;-56
2021/10/12 05:20:17;;;;;;;1.80;1.35;;;20.70;53.70;;;;;;4991980;28;20108;-58
2021/10/12 05:22:46;;;;;;;2.78;1.48;;;20.70;53.70;;;;;;4979898;28;20039;-54
2021/10/12 05:25:12;;;;;;;;;;;20.70;53.70;;;;;;4991090;28;20039;-59
2021/10/12 05:27:38;;;;;;;2.40;1.40;;;20.70;53.70;;;;;;4999390;28;19924;-57
2021/10/12 05:30:06;;;;;;;2.78;1.77;;;20.70;54.20;;;;;;4994449;28;20026;-57
2021/10/12 05:32:31;;;;;;;2.20;1.65;;;20.80;54.30;;;;;;4999351;28;20049;-55
2021/10/12 05:34:58;;;;;;;2.45;1.63;;;20.90;53.90;;;;;;4995017;28;20037;-57
2021/10/12 05:37:24;;;;;;;2.40;1.60;;;21.10;53.60;;;;;;4983833;28;20122;-52
2021/10/12 05:39:50;;;;;;;2.88;1.80;;;21.20;53.40;;;;;;4996172;28;20058;-59
2021/10/12 05:42:15;;;;;;;2.90;1.85;;;21.30;53.20;;;;;;4996941;28;20670;-54
2021/10/12 05:44:41;;;;;;;2.78;1.52;;;21.40;52.90;;;;;;4998215;28;20037;-59
2021/10/12 05:47:06;;;;;;;2.10;1.50;;;21.40;52.70;;;;;;4990322;28;20108;-55
2021/10/12 05:49:32;;;;;;;2.08;1.38;;;21.40;52.70;;;;;;5001798;28;20090;-57
2021/10/12 05:52:00;;;;;;;2.00;1.30;;;21.40;52.70;;;;;;4999465;28;20177;-57
2021/10/12 05:54:29;;;;;;;1.83;1.30;;;21.40;52.80;;;;;;4994327;28;20032;-59
2021/10/12 05:56:56;;;;;;;2.20;1.40;;;21.40;53.30;;;;;;5001606;28;20042;-56
2021/10/12 05:59:25;;;;;;;2.15;1.40;;;21.40;52.80;;;;;;4997550;28;20038;-56
2021/10/12 06:01:51;;;;;;;1.90;1.40;;;21.40;52.80;;;;;;5000015;28;20045;-57
2021/10/12 06:04:16;;;;;;;1.80;1.23;;;21.40;52.80;;;;;;4996967;28;20823;-56
2021/10/12 06:06:42;;;;;;;1.58;1.30;;;21.40;52.70;;;;;;4998107;28;20044;-56
2021/10/12 06:09:10;;;;;;;3.85;1.88;;;21.50;52.80;;;;;;4993667;28;20159;-53
2021/10/12 06:11:35;;;;;;;2.22;1.48;;;21.60;52.70;;;;;;4997609;28;20030;-55
2021/10/12 06:14:01;;;;;;;2.47;1.73;;;21.70;52.60;;;;;;4991480;28;20558;-59
2021/10/12 06:16:26;;;;;;;2.45;1.45;;;21.90;52.30;;;;;;4988966;28;20125;-55
2021/10/12 06:18:52;;;;;;;2.50;1.60;;;22.10;52.00;;;;;;4999474;28;20105;-58
2021/10/12 06:21:18;;;;;;;1.98;1.40;;;22.20;51.40;;;;;;4989961;28;20447;-55
2021/10/12 06:23:43;;;;;;;2.72;1.20;;;22.30;51.10;;;;;;4993143;28;20030;-60
2021/10/12 06:26:09;;;;;;;2.13;1.35;;;22.20;51.20;;;;;;4997844;28;20037;-57
2021/10/12 06:28:35;;;;;;;2.00;1.40;;;22.10;51.40;;;;;;5014082;28;20025;-58
2021/10/12 06:31:00;;;;;;;1.92;1.30;;;22.10;51.50;;;;;;4999546;28;20035;-59
2021/10/12 06:33:26;;;;;;;2.28;1.33;;;22.10;51.60;;;;;;4997044;28;20021;-61
2021/10/12 06:35:52;;;;;;;2.30;1.52;;;22.10;51.70;;;;;;4996330;28;20101;-59
2021/10/12 06:38:17;;;;;;;1.98;1.38;;;22.20;51.50;;;;;;4996624;28;20064;-58
2021/10/12 06:40:43;;;;;;;1.70;1.20;;;22.10;51.40;;;;;;5016646;28;20088;-57
2021/10/12 06:43:10;;;;;;;2.67;1.40;;;22.20;51.40;;;;;;5002401;28;20042;-59
2021/10/12 06:45:37;;;;;;;1.40;1.00;;;22.20;51.40;;;;;;4994511;28;20082;-56
2021/10/12 06:48:03;;;;;;;1.85;1.23;;;22.10;51.40;;;;;;4998030;28;20065;-60
2021/10/12 06:50:30;;;;;;;1.95;1.27;;;22.10;51.50;;;;;;4999324;28;20033;-53
2021/10/12 06:52:56;;;;;;;1.80;1.30;;;22.10;51.50;;;;;;5002940;28;20087;-60
2021/10/12 06:55:22;;;;;;;1.70;1.20;;;22.10;51.60;;;;;;5002555;28;20030;-58
2021/10/12 06:57:48;;;;;;;1.92;1.30;;;22.10;51.40;;;;;;5005513;28;20112;-57
2021/10/12 07:00:15;;;;;;;1.48;1.17;;;22.20;51.60;;;;;;4990442;28;20073;-58
2021/10/12 07:02:41;;;;;;;1.90;1.30;;;22.20;51.60;;;;;;4988414;28;20509;-59
2021/10/12 07:05:08;;;;;;;2.05;1.30;;;22.10;51.40;;;;;;5012325;28;20646;-60
2021/10/12 07:07:33;;;;;;;1.83;1.20;;;22.20;51.60;;;;;;5000727;28;20032;-58
2021/10/12 07:10:00;;;;;;;1.40;1.10;;;22.20;51.60;;;;;;5006292;28;20038;-58
2021/10/12 07:12:27;;;;;;;2.42;1.50;;;22.20;51.50;;;;;;5003071;28;20156;-58
2021/10/12 07:14:52;;;;;;;2.28;1.30;;;22.20;51.30;;;;;;4995519;28;20667;-57
2021/10/12 07:17:18;;;;;;;2.15;1.55;;;22.20;51.30;;;;;;5000239;28;20029;-57
2021/10/12 07:19:44;;;;;;;1.80;1.30;;;22.20;51.40;;;;;;4999233;28;20491;-58
2021/10/12 07:22:10;;;;;;;1.40;1.02;;;22.20;51.50;;;;;;4984929;28;20453;-61
2021/10/12 07:24:35;;;;;;;1.95;1.17;;;22.20;51.50;;;;;;4989991;28;20088;-58
2021/10/12 07:27:01;;;;;;;2.97;1.55;;;22.20;51.40;;;;;;4997847;28;20092;-57
2021/10/12 07:29:26;;;;;;;1.65;1.10;;;22.30;51.40;;;;;;4998787;28;20038;-60
2021/10/12 07:31:52;;;;;;;1.80;1.40;;;22.20;51.40;;;;;;4984138;28;20145;-60
2021/10/12 07:34:18;;;;;;;1.88;1.30;;;22.30;51.30;;;;;;4980370;28;20383;-58
2021/10/12 07:36:43;;;;;;;2.20;1.40;;;22.30;51.40;;;;;;4986990;28;20081;-58
2021/10/12 07:39:09;;;;;;;1.95;1.27;;;22.20;51.40;;;;;;4989146;28;20115;-56
2021/10/12 07:41:36;;;;;;;1.80;1.10;;;22.20;51.30;;;;;;4993610;28;20553;-60
2021/10/12 07:44:02;;;;;;;2.10;1.40;;;22.30;51.30;;;;;;4976496;28;20097;-56
2021/10/12 07:46:27;;;;;;;2.13;1.40;;;22.30;51.30;;;;;;4989524;28;20042;-60
2021/10/12 07:48:56;;;;;;;1.55;1.00;;;22.30;51.30;;;;;;4989032;28;20062;-61
2021/10/12 07:51:22;;;;;;;1.70;1.20;;;22.30;51.30;;;;;;5002413;28;20033;-60
2021/10/12 07:53:47;;;;;;;2.10;1.30;;;22.30;51.30;;;;;;5001020;28;20041;-59
2021/10/12 07:56:19;;;;;;;3.55;1.50;;;22.30;51.70;;;;;;4985049;28;20085;-57
2021/10/12 07:58:45;;;;;;;1.65;1.15;;;22.30;51.30;;;;;;5002378;28;20042;-57
2021/10/12 08:01:10;;;;;;;1.92;1.30;;;22.30;51.30;;;;;;4990113;28;20037;-56
2021/10/12 08:03:36;;;;;;;1.58;1.23;;;22.30;51.30;;;;;;4998232;28;20463;-58
2021/10/12 08:06:02;;;;;;;1.70;1.20;;;22.30;51.20;;;;;;4989239;28;20038;-59
2021/10/12 08:08:27;;;;;;;1.73;1.13;;;22.30;51.20;;;;;;4988773;28;20038;-56
2021/10/12 08:10:53;;;;;;;2.10;1.20;;;22.30;51.20;;;;;;5005941;28;20122;-59
2021/10/12 08:13:21;;;;;;;2.10;1.45;;;22.30;51.10;;;;;;4988329;28;20504;-60
2021/10/12 08:15:52;;;;;;;1.95;1.33;;;22.30;51.20;;;;;;4991432;28;20045;-61
2021/10/12 08:18:18;;;;;;;1.70;1.30;;;22.30;51.10;;;;;;4987479;28;20062;-59
2021/10/12 08:20:46;;;;;;;2.33;1.40;;;22.30;51.10;;;;;;4996235;28;20049;-58
2021/10/12 08:23:12;;;;;;;1.92;1.25;;;22.30;51.10;;;;;;4986301;28;20026;-59
2021/10/12 08:25:37;;;;;;;1.75;1.33;;;22.40;51.30;;;;;;4997196;28;20056;-59
2021/10/12 08:28:03;;;;;;;2.00;1.27;;;22.30;51.10;;;;;;4996096;28;20057;-57
2021/10/12 08:30:29;;;;;;;1.80;1.17;;;22.30;51.20;;;;;;4989192;28;20499;-58
2021/10/12 08:32:54;;;;;;;1.40;1.10;;;22.30;51.20;;;;;;5004464;28;20620;-55
2021/10/12 08:35:20;;;;;;;2.47;1.23;;;22.30;51.20;;;;;;4990429;28;20056;-57
2021/10/12 08:37:46;;;;;;;1.92;1.23;;;22.30;51.00;;;;;;4990389;28;20049;-56
2021/10/12 08:40:17;;;;;;;2.28;1.27;;;22.30;51.00;;;;;;4994804;28;20335;-61
2021/10/12 08:42:51;;;;;;;1.88;1.20;;;22.30;51.10;;;;;;4997737;28;20033;-58
2021/10/12 08:45:18;;;;;;;2.60;1.40;;;22.30;51.10;;;;;;5005506;28;20038;-57
2021/10/12 08:47:44;;;;;;;1.77;1.27;;;22.40;51.20;;;;;;4991414;28;20062;-56
2021/10/12 08:50:15;;;;;;;2.78;1.30;;;22.30;51.20;;;;;;5003441;28;20088;-55
2021/10/12 08:52:41;;;;;;;1.70;1.20;;;22.40;51.20;;;;;;4982474;28;20054;-58
2021/10/12 08:55:07;;;;;;;1.35;1.10;;;22.30;51.10;;;;;;4982103;28;20375;-55
2021/10/12 08:57:35;;;;;;;1.88;1.20;;;22.30;51.10;;;;;;4981361;28;20149;-58
2021/10/12 09:00:06;;;;;;;1.75;1.20;;;22.30;51.10;;;;;;4991540;28;20129;-58
2021/10/12 09:02:31;;;;;;;2.30;1.42;;;22.30;50.90;;;;;;4983965;28;20115;-58
2021/10/12 09:04:57;;;;;;;1.80;1.40;;;22.30;51.00;;;;;;4989001;28;20550;-59
2021/10/12 09:07:25;;;;;;;1.80;1.30;;;22.40;51.00;;;;;;4988783;28;20061;-61
2021/10/12 09:09:53;;;;;;;1.88;1.23;;;22.40;51.00;;;;;;4988726;28;20068;-60
2021/10/12 09:12:37;;;;;;;1.85;1.30;;;22.40;51.00;;;;;;4984274;28;20026;-58
2021/10/12 09:15:04;;;;;;;1.98;1.45;;;22.40;51.00;;;;;;5001888;28;20164;-58
2021/10/12 09:17:33;;;;;;;1.70;1.30;;;22.40;51.00;;;;;;4998256;28;20089;-59
2021/10/12 09:20:00;;;;;;;2.13;1.45;;;22.30;50.90;;;;;;4988688;28;20045;-61
2021/10/12 09:22:26;;;;;;;1.88;1.40;;;22.40;51.00;;;;;;4981608;28;20146;-57
2021/10/12 09:25:04;;;;;;;2.10;1.33;;;22.40;51.00;;;;;;4994603;28;20273;-58
2021/10/12 09:27:44;;;;;;;2.05;1.30;;;22.40;50.90;;;;;;4987047;28;20693;-61
2021/10/12 09:30:12;;;;;;;1.63;1.33;;;22.30;50.90;;;;;;4991340;28;20050;-58
2021/10/12 09:32:38;;;;;;;1.70;1.30;;;22.40;50.90;;;;;;4984321;28;20045;-57
2021/10/12 09:35:04;;;;;;;1.88;1.30;;;22.30;51.10;;;;;;4992655;28;20101;-57
2021/10/12 09:37:29;;;;;;;2.47;1.50;;;22.40;51.00;;;;;;4981141;28;20022;-59
2021/10/12 09:39:56;;;;;;;1.83;1.40;;;22.30;50.90;;;;;;4998599;28;20117;-57
2021/10/12 09:42:21;;;;;;;3.10;1.40;;;22.30;50.90;;;;;;4985295;28;20096;-58
2021/10/12 09:44:59;;;;;;;2.08;1.40;;;22.30;50.90;;;;;;4986908;28;20049;-55
2021/10/12 09:47:25;;;;;;;1.80;1.42;;;22.40;50.90;;;;;;4999973;28;20032;-61
2021/10/12 09:50:06;;;;;;;1.77;1.40;;;22.40;50.90;;;;;;5001664;28;20104;-58
2021/10/12 09:52:36;;;;;;;2.05;1.50;;;22.30;51.00;;;;;;4984320;28;20019;-57
2021/10/12 09:55:02;;;;;;;1.83;1.30;;;22.30;50.90;;;;;;4990163;28;20176;-57
2021/10/12 09:57:30;;;;;;;3.50;1.48;;;22.30;51.00;;;;;;4997120;28;20101;-60
2021/10/12 09:59:57;;;;;;;1.75;1.30;;;22.30;51.00;;;;;;4983326;28;20026;-58
2021/10/12 10:02:24;;;;;;;1.77;1.20;;;22.30;51.10;;;;;;4991787;28;20118;-58
2021/10/12 10:04:51;;;;;;;1.85;1.30;;;22.30;51.20;;;;;;4985076;28;20049;-61
2021/10/12 10:07:30;;;;;;;1.83;1.20;;;22.40;51.30;;;;;;4990024;28;20096;-57
2021/10/12 10:10:06;;;;;;;2.42;1.38;;;22.30;51.30;;;;;;4989949;28;20370;-55
2021/10/12 10:12:33;;;;;;;2.30;1.38;;;22.30;51.10;;;;;;4983696;28;20084;-58
2021/10/12 10:14:58;;;;;;;2.10;1.40;;;22.40;51.20;;;;;;4990353;28;20031;-59
2021/10/12 10:17:24;;;;;;;1.95;1.27;;;22.30;51.10;;;;;;4992696;28;20528;-57
2021/10/12 10:19:51;;;;;;;2.30;1.40;;;22.40;51.30;;;;;;4982437;28;20517;-58
2021/10/12 10:22:51;;;;;;;2.17;1.50;;;22.40;51.80;;;;;;4998352;28;20721;-60
2021/10/12 10:25:35;;;;;;;4.00;1.80;;;22.40;51.20;;;;;;5001572;28;20026;-60
2021/10/12 10:28:15;;;;;;;2.00;1.40;;;22.40;51.20;;;;;;4997933;28;20022;-58
2021/10/12 10:30:49;;;;;;;1.95;1.35;;;22.40;51.20;;;;;;4996777;28;20061;-56
2021/10/12 10:33:28;;;;;;;1.88;1.35;;;22.30;51.10;;;;;;4990706;28;20026;-61
2021/10/12 10:35:58;;;;;;;2.20;1.45;;;22.40;51.20;;;;;;4986096;28;20026;-58
2021/10/12 10:38:26;;;;;;;2.13;1.63;;;22.40;51.20;;;;;;4984259;28;20109;-56
2021/10/12 10:41:15;;;;;;;1.77;1.20;;;22.40;51.20;;;;;;4980591;28;21838;-59
2021/10/12 10:44:02;;;;;;;2.13;1.30;;;22.40;51.40;;;;;;4988188;28;20108;-55
2021/10/12 10:46:36;;;;;;;1.80;1.30;;;22.40;51.20;;;;;;5000214;28;20141;-56
2021/10/12 10:49:18;;;;;;;2.30;1.60;;;22.40;51.30;;;;;;5004796;28;20034;-55
2021/10/12 10:51:48;;;;;;;2.08;1.40;;;22.40;51.30;;;;;;4988830;28;20034;-54
2021/10/12 10:54:39;;;;;;;2.88;1.60;;;22.40;51.30;;;;;;4994019;28;20029;-60
2021/10/12 10:57:16;;;;;;;2.00;1.35;;;22.40;51.40;;;;;;5006746;28;20061;-60
2021/10/12 10:59:42;;;;;;;2.30;1.52;;;22.40;51.40;;;;;;4999906;28;20065;-57
2021/10/12 11:02:43;;;;;;;2.75;1.42;;;22.40;51.40;;;;;;4980896;28;20048;-57
2021/10/12 11:05:09;;;;;;;2.13;1.50;;;22.40;51.40;;;;;;4996756;28;20034;-59
2021/10/12 11:07:34;;;;;;;2.70;1.58;;;22.40;51.40;;;;;;4999224;28;20452;-57
2021/10/12 11:10:00;;;;;;;2.08;1.42;;;22.40;51.30;;;;;;4998136;28;20031;-57
2021/10/12 11:12:30;;;;;;;2.28;1.50;;;22.40;51.40;;;;;;4990901;28;20030;-60
2021/10/12 11:15:08;;;;;;;2.08;1.60;;;22.40;51.30;;;;;;4999646;28;20041;-58
2021/10/12 11:17:34;;;;;;;2.55;1.60;;;22.40;51.40;;;;;;4989256;28;20092;-58
2021/10/12 11:20:03;;;;;;;1.88;1.38;;;22.40;51.40;;;;;;4990534;28;20046;-54
2021/10/12 11:22:29;;;;;;;2.10;1.60;;;22.40;51.40;;;;;;4980823;28;20026;-55
2021/10/12 11:24:57;;;;;;;2.50;1.60;;;22.40;51.30;;;;;;4988336;28;20806;-57
2021/10/12 11:27:23;;;;;;;1.92;1.30;;;22.40;51.40;;;;;;4995638;28;20030;-56
2021/10/12 11:30:05;;;;;;;2.17;1.60;;;22.40;51.30;;;;;;4982061;28;20030;-60
2021/10/12 11:32:31;;;;;;;2.38;1.60;;;22.40;51.30;;;;;;4983540;28;20799;-60
2021/10/12 11:35:06;;;;;;;2.42;1.50;;;22.40;51.40;;;;;;4996579;28;20097;-58
2021/10/12 11:37:32;;;;;;;2.28;1.50;;;22.40;51.40;;;;;;4995207;28;20108;-58
2021/10/12 11:40:14;;;;;;;2.22;1.30;;;22.40;51.30;;;;;;4986399;28;21059;-57
2021/10/12 11:42:44;;;;;;;2.78;1.40;;;22.40;51.30;;;;;;4986121;28;20042;-55
2021/10/12 11:45:11;;;;;;;2.42;1.50;;;22.40;51.60;;;;;;4990588;28;20033;-60
2021/10/12 11:47:37;;;;;;;1.85;1.30;;;22.40;51.30;;;;;;5001420;28;20438;-57
2021/10/12 11:50:10;;;;;;;2.38;1.40;;;22.40;51.20;;;;;;4987412;28;20358;-57
2021/10/12 11:52:36;;;;;;;2.67;1.40;;;22.40;51.30;;;;;;4987953;28;20532;-56
2021/10/12 11:55:09;;;;;;;2.00;1.40;;;22.40;51.30;;;;;;4989406;28;20022;-53
2021/10/12 11:57:36;;;;;;;2.95;1.63;;;22.50;51.30;;;;;;4998368;28;20029;-58
2021/10/12 12:00:02;;;;;;;2.05;1.30;;;22.50;51.20;;;;;;4991966;28;20034;-56
2021/10/12 12:02:31;;;;;;;2.20;1.30;;;22.40;51.20;;;;;;4981765;28;20116;-55
2021/10/12 12:05:01;;;;;;;2.00;1.33;;;22.40;51.30;;;;;;4988443;28;20060;-54
2021/10/12 12:07:31;;;;;;;2.03;1.30;;;22.50;51.30;;;;;;4985145;28;20034;-58
2021/10/12 12:09:57;;;;;;;2.10;1.40;;;22.50;51.20;;;;;;4990430;28;20030;-55
2021/10/12 12:12:23;;;;;;;2.22;1.40;;;22.50;51.70;;;;;;4985768;28;20026;-55
2021/10/12 12:14:50;;;;;;;1.70;1.20;;;22.50;51.10;;;;;;4980215;28;20052;-56
2021/10/12 12:17:22;;;;;;;1.40;1.05;;;22.50;51.20;;;;;;4999608;28;20065;-55
2021/10/12 12:19:56;;;;;;;2.20;1.42;;;22.50;51.10;;;;;;4989521;28;20042;-56
2021/10/12 12:22:30;;;;;;;2.17;1.30;;;22.50;51.10;;;;;;4984599;28;20453;-59
2021/10/12 12:24:57;;;;;;;1.60;1.20;;;22.50;51.30;;;;;;4983618;28;20655;-59
2021/10/12 12:27:33;;;;;;;2.88;1.30;;;22.50;51.10;;;;;;4997762;28;20030;-55
2021/10/12 12:30:03;;;;;;;2.03;1.40;;;22.50;51.10;;;;;;4993021;28;20136;-57
2021/10/12 12:32:28;;;;;;;2.17;1.33;;;22.50;51.10;;;;;;4991433;28;20049;-59
2021/10/12 12:35:05;;;;;;;2.00;1.40;;;22.50;51.10;;;;;;4993837;28;20026;-56
2021/10/12 12:37:31;;;;;;;2.42;1.75;;;22.50;50.90;;;;;;4988861;28;20038;-56
2021/10/12 12:39:57;;;;;;;2.17;1.30;;;22.50;50.90;;;;;;4997274;28;20022;-58
2021/10/12 12:42:34;;;;;;;1.67;1.25;;;22.50;51.00;;;;;;4983459;28;20034;-54
2021/10/12 12:45:13;;;;;;;1.90;1.30;;;22.50;51.00;;;;;;4988216;28;20045;-57
2021/10/12 12:47:59;;;;;;;1.85;1.20;;;22.50;51.00;;;;;;4998782;28;20059;-55
2021/10/12 12:50:33;;;;;;;2.50;1.50;;;22.50;51.00;;;;;;4992573;28;20021;-55